sensor_id;sensor_type;location;lat;lon;timestamp;pressure;altitude;pressure_sealevel;temperature;humidity
64933;BME280;51446;53.850;10.662;2023-03-18T00:02:21;100685.53;;;9.66;100.00
64933;BME280;51446;53.850;10.662;2023-03-18T00:04:47;100693.09;;;9.50;100.00
64933;BME280;51446;53.850;10.662;2023-03-18T00:07:12;100685.59;;;9.70;100.00
64933;BME280;51446;53.850;10.662;2023-03-18T00:09:37;100684.66;;;9.65;100.00
64933;BME280;51446;53.850;10.662;2023-03-18T00:12:03;100685.59;;;9.70;100.00
64933;BME280;51446;53.850;10.662;2023-03-18T00:14:29;100686.25;;;9.59;100.00
64933;BME280;51446;53.850;10.662;2023-03-18T00:16:55;100687.75;;;9.44;100.00
64933;BME280;51446;53.850;10.662;2023-03-18T00:19:22;100686.25;;;9.59;100.00
64933;BME280;51446;53.850;10.662;2023-03-18T00:21:50;100687.09;;;9.58;100.00
64933;BME280;51446;53.850;10.662;2023-03-18T00:24:16;100684.25;;;9.44;100.00
64933;BME280;51446;53.850;10.662;2023-03-18T00:26:42;100686.63;;;9.31;100.00
64933;BME280;51446;53.850;10.662;2023-03-18T00:29:08;100681.38;;;9.31;100.00
64933;BME280;51446;53.850;10.662;2023-03-18T00:31:34;100685.66;;;9.26;100.00
64933;BME280;51446;53.850;10.662;2023-03-18T00:33:59;100687.38;;;9.26;100.00
64933;BME280;51446;53.850;10.662;2023-03-18T00:36:25;100672.22;;;9.08;100.00
64933;BME280;51446;53.850;10.662;2023-03-18T00:38:52;100673.34;;;9.20;100.00
64933;BME280;51446;53.850;10.662;2023-03-18T00:41:23;100675.88;;;9.17;100.00
64933;BME280;51446;53.850;10.662;2023-03-18T00:43:48;100679.06;;;9.02;100.00
64933;BME280;51446;53.850;10.662;2023-03-18T00:46:31;100682.84;;;9.17;100.00
64933;BME280;51446;53.850;10.662;2023-03-18T00:48:58;100674.91;;;9.12;100.00
64933;BME280;51446;53.850;10.662;2023-03-18T00:51:26;100684.56;;;9.15;100.00
64933;BME280;51446;53.850;10.662;2023-03-18T00:53:54;100683.16;;;8.90;100.00
64933;BME280;51446;53.850;10.662;2023-03-18T00:56:21;100687.53;;;8.89;100.00
64933;BME280;51446;53.850;10.662;2023-03-18T00:58:47;100690.16;;;8.91;100.00
64933;BME280;51446;53.850;10.662;2023-03-18T01:01:13;100682.19;;;8.84;100.00
64933;BME280;51446;53.850;10.662;2023-03-18T01:03:40;100682.28;;;8.89;100.00
64933;BME280;51446;53.850;10.662;2023-03-18T01:06:10;100677.81;;;8.83;100.00
64933;BME280;51446;53.850;10.662;2023-03-18T01:08:37;100682.22;;;8.86;100.00
64933;BME280;51446;53.850;10.662;2023-03-18T01:11:03;100668.28;;;8.87;100.00
64933;BME280;51446;53.850;10.662;2023-03-18T01:13:29;100673.66;;;8.93;100.00
64933;BME280;51446;53.850;10.662;2023-03-18T01:15:54;100684.00;;;8.89;100.00
64933;BME280;51446;53.850;10.662;2023-03-18T01:18:21;100686.56;;;8.85;100.00
64933;BME280;51446;53.850;10.662;2023-03-18T01:20:48;100680.53;;;8.88;100.00
64933;BME280;51446;53.850;10.662;2023-03-18T01:23:13;100687.59;;;8.92;100.00
64933;BME280;51446;53.850;10.662;2023-03-18T01:25:39;100687.56;;;8.91;100.00
64933;BME280;51446;53.850;10.662;2023-03-18T01:28:05;100681.47;;;8.92;100.00
64933;BME280;51446;53.850;10.662;2023-03-18T01:30:31;100683.16;;;8.90;100.00
64933;BME280;51446;53.850;10.662;2023-03-18T01:32:59;100692.81;;;8.92;100.00
64933;BME280;51446;53.850;10.662;2023-03-18T01:35:25;100692.72;;;8.88;100.00
64933;BME280;51446;53.850;10.662;2023-03-18T01:37:51;100692.91;;;8.97;100.00
64933;BME280;51446;53.850;10.662;2023-03-18T01:40:18;100693.66;;;8.91;100.00
64933;BME280;51446;53.850;10.662;2023-03-18T01:42:50;100704.06;;;8.88;100.00
64933;BME280;51446;53.850;10.662;2023-03-18T01:45:26;100694.66;;;8.96;100.00
64933;BME280;51446;53.850;10.662;2023-03-18T01:47:53;100699.94;;;8.99;100.00
64933;BME280;51446;53.850;10.662;2023-03-18T01:50:23;100698.97;;;8.96;100.00
64933;BME280;51446;53.850;10.662;2023-03-18T01:52:55;100690.34;;;9.00;100.00
64933;BME280;51446;53.850;10.662;2023-03-18T01:55:25;100689.25;;;8.90;100.00
64933;BME280;51446;53.850;10.662;2023-03-18T01:57:51;100685.91;;;8.96;100.00
64933;BME280;51446;53.850;10.662;2023-03-18T02:00:17;100685.03;;;8.95;100.00
64933;BME280;51446;53.850;10.662;2023-03-18T02:02:45;100689.34;;;8.93;100.00
64933;BME280;51446;53.850;10.662;2023-03-18T02:05:15;100686.91;;;9.01;100.00
64933;BME280;51446;53.850;10.662;2023-03-18T02:07:42;100677.25;;;8.98;100.00
64933;BME280;51446;53.850;10.662;2023-03-18T02:10:15;100677.19;;;8.95;100.00
64933;BME280;51446;53.850;10.662;2023-03-18T02:12:44;100672.53;;;8.80;100.00
64933;BME280;51446;53.850;10.662;2023-03-18T02:15:21;100685.84;;;8.93;100.00
64933;BME280;51446;53.850;10.662;2023-03-18T02:17:54;100685.13;;;9.00;100.00
64933;BME280;51446;53.850;10.662;2023-03-18T02:20:32;100697.22;;;8.95;100.00
64933;BME280;51446;53.850;10.662;2023-03-18T02:26:09;100679.44;;;8.78;100.00
64933;BME280;51446;53.850;10.662;2023-03-18T02:28:38;100701.47;;;8.90;100.00
64933;BME280;51446;53.850;10.662;2023-03-18T02:31:09;100703.13;;;8.84;100.00
64933;BME280;51446;53.850;10.662;2023-03-18T02:33:37;100713.28;;;8.72;100.00
64933;BME280;51446;53.850;10.662;2023-03-18T02:36:25;100713.63;;;8.86;100.00
64933;BME280;51446;53.850;10.662;2023-03-18T02:38:53;100716.84;;;8.76;100.00
64933;BME280;51446;53.850;10.662;2023-03-18T02:41:21;100716.63;;;8.65;100.00
64933;BME280;51446;53.850;10.662;2023-03-18T02:43:49;100715.22;;;8.81;100.00
64933;BME280;51446;53.850;10.662;2023-03-18T02:46:20;100717.00;;;8.82;100.00
64933;BME280;51446;53.850;10.662;2023-03-18T02:48:48;100726.25;;;8.66;100.00
64933;BME280;51446;53.850;10.662;2023-03-18T02:51:15;100727.88;;;8.62;100.00
64933;BME280;51446;53.850;10.662;2023-03-18T02:53:41;100721.72;;;8.59;100.00
64933;BME280;51446;53.850;10.662;2023-03-18T02:56:08;100722.69;;;8.64;100.00
64933;BME280;51446;53.850;10.662;2023-03-18T02:58:35;100729.00;;;8.74;100.00
64933;BME280;51446;53.850;10.662;2023-03-18T03:01:02;100724.50;;;8.66;100.00
64933;BME280;51446;53.850;10.662;2023-03-18T03:03:27;100726.22;;;8.64;100.00
64933;BME280;51446;53.850;10.662;2023-03-18T03:05:53;100726.28;;;8.67;100.00
64933;BME280;51446;53.850;10.662;2023-03-18T03:08:19;100733.25;;;8.68;100.00
64933;BME280;51446;53.850;10.662;2023-03-18T03:10:45;100728.13;;;8.72;100.00
64933;BME280;51446;53.850;10.662;2023-03-18T03:13:11;100721.94;;;8.70;100.00
64933;BME280;51446;53.850;10.662;2023-03-18T03:15:38;100728.91;;;8.69;100.00
64933;BME280;51446;53.850;10.662;2023-03-18T03:18:04;100725.50;;;8.72;100.00
64933;BME280;51446;53.850;10.662;2023-03-18T03:20:30;100722.91;;;8.73;100.00
64933;BME280;51446;53.850;10.662;2023-03-18T03:23:00;100719.47;;;8.76;100.00
64933;BME280;51446;53.850;10.662;2023-03-18T03:25:26;100712.56;;;8.78;100.00
64933;BME280;51446;53.850;10.662;2023-03-18T03:27:52;100716.34;;;8.92;100.00
64933;BME280;51446;53.850;10.662;2023-03-18T03:30:17;100710.03;;;8.82;100.00
64933;BME280;51446;53.850;10.662;2023-03-18T03:32:43;100710.97;;;8.84;100.00
64933;BME280;51446;53.850;10.662;2023-03-18T03:35:12;100707.66;;;8.93;100.00
64933;BME280;51446;53.850;10.662;2023-03-18T03:37:37;100710.28;;;8.93;100.00
64933;BME280;51446;53.850;10.662;2023-03-18T03:40:02;100704.13;;;8.91;100.00
64933;BME280;51446;53.850;10.662;2023-03-18T03:42:30;100708.63;;;8.98;100.00
64933;BME280;51446;53.850;10.662;2023-03-18T03:44:55;100713.72;;;8.92;100.00
64933;BME280;51446;53.850;10.662;2023-03-18T03:47:21;100713.63;;;8.86;100.00
64933;BME280;51446;53.850;10.662;2023-03-18T03:49:46;100712.81;;;8.90;100.00
64933;BME280;51446;53.850;10.662;2023-03-18T03:52:11;100716.28;;;8.89;100.00
64933;BME280;51446;53.850;10.662;2023-03-18T03:54:37;100713.34;;;8.75;100.00
64933;BME280;51446;53.850;10.662;2023-03-18T03:57:02;100709.84;;;8.73;100.00
64933;BME280;51446;53.850;10.662;2023-03-18T03:59:28;100701.84;;;8.67;100.00
64933;BME280;51446;53.850;10.662;2023-03-18T04:01:53;100707.16;;;8.70;100.00
64933;BME280;51446;53.850;10.662;2023-03-18T04:04:18;100701.00;;;8.68;100.00
64933;BME280;51446;53.850;10.662;2023-03-18T04:06:44;100699.22;;;8.67;100.00
64933;BME280;51446;53.850;10.662;2023-03-18T04:09:09;100694.97;;;8.71;100.00
64933;BME280;51446;53.850;10.662;2023-03-18T04:11:35;100707.16;;;8.70;100.00
64933;BME280;51446;53.850;10.662;2023-03-18T04:14:00;100702.78;;;8.69;100.00
64933;BME280;51446;53.850;10.662;2023-03-18T04:16:26;100695.59;;;8.59;100.00
64933;BME280;51446;53.850;10.662;2023-03-18T04:18:51;100696.75;;;8.72;100.00
64933;BME280;51446;53.850;10.662;2023-03-18T04:21:16;100701.03;;;8.70;100.00
64933;BME280;51446;53.850;10.662;2023-03-18T04:23:42;100696.63;;;8.67;100.00
64933;BME280;51446;53.850;10.662;2023-03-18T04:26:07;100696.72;;;8.70;100.00
64933;BME280;51446;53.850;10.662;2023-03-18T04:28:33;100687.00;;;8.64;100.00
64933;BME280;51446;53.850;10.662;2023-03-18T04:30:59;100698.53;;;8.76;100.00
64933;BME280;51446;53.850;10.662;2023-03-18T04:33:24;100705.63;;;8.80;100.00
64933;BME280;51446;53.850;10.662;2023-03-18T04:35:50;100702.94;;;8.77;100.00
64933;BME280;51446;53.850;10.662;2023-03-18T04:38:16;100713.16;;;8.66;100.00
64933;BME280;51446;53.850;10.662;2023-03-18T04:40:41;100717.22;;;8.53;100.00
64933;BME280;51446;53.850;10.662;2023-03-18T04:43:07;100716.31;;;8.53;100.00
64933;BME280;51446;53.850;10.662;2023-03-18T04:45:34;100717.25;;;8.55;100.00
64933;BME280;51446;53.850;10.662;2023-03-18T04:47:59;100730.25;;;8.52;100.00
64933;BME280;51446;53.850;10.662;2023-03-18T04:50:25;100732.81;;;8.48;100.00
64933;BME280;51446;53.850;10.662;2023-03-18T04:52:50;100737.22;;;8.53;100.00
64933;BME280;51446;53.850;10.662;2023-03-18T04:55:15;100737.38;;;8.57;100.00
64933;BME280;51446;53.850;10.662;2023-03-18T04:57:42;100742.38;;;8.48;100.00
64933;BME280;51446;53.850;10.662;2023-03-18T05:00:10;100750.19;;;8.48;100.00
64933;BME280;51446;53.850;10.662;2023-03-18T05:02:36;100749.31;;;8.47;100.00
64933;BME280;51446;53.850;10.662;2023-03-18T05:05:01;100747.72;;;8.54;100.00
64933;BME280;51446;53.850;10.662;2023-03-18T05:07:27;100749.09;;;8.40;100.00
64933;BME280;51446;53.850;10.662;2023-03-18T05:09:52;100747.69;;;8.18;100.00
64933;BME280;51446;53.850;10.662;2023-03-18T05:12:18;100751.59;;;8.35;100.00
64933;BME280;51446;53.850;10.662;2023-03-18T05:14:43;100750.56;;;8.27;100.00
64933;BME280;51446;53.850;10.662;2023-03-18T05:17:10;100752.41;;;8.32;100.00
64933;BME280;51446;53.850;10.662;2023-03-18T05:19:46;100754.31;;;8.40;100.00
64933;BME280;51446;53.850;10.662;2023-03-18T05:22:14;100748.16;;;8.36;100.00
64933;BME280;51446;53.850;10.662;2023-03-18T05:24:39;100743.63;;;8.29;100.00
64933;BME280;51446;53.850;10.662;2023-03-18T05:27:05;100735.88;;;8.33;100.00
64933;BME280;51446;53.850;10.662;2023-03-18T05:29:31;100742.41;;;8.14;100.00
64933;BME280;51446;53.850;10.662;2023-03-18T05:31:57;100740.44;;;8.06;100.00
64933;BME280;51446;53.850;10.662;2023-03-18T05:34:22;100749.47;;;8.19;100.00
64933;BME280;51446;53.850;10.662;2023-03-18T05:36:48;100751.47;;;8.29;100.00
64933;BME280;51446;53.850;10.662;2023-03-18T05:39:13;100751.34;;;8.24;100.00
64933;BME280;51446;53.850;10.662;2023-03-18T05:41:38;100761.72;;;8.21;100.00
64933;BME280;51446;53.850;10.662;2023-03-18T05:44:04;100764.47;;;8.27;100.00
64933;BME280;51446;53.850;10.662;2023-03-18T05:46:30;100765.59;;;8.37;100.00
64933;BME280;51446;53.850;10.662;2023-03-18T05:48:55;100769.81;;;8.32;100.00
64933;BME280;51446;53.850;10.662;2023-03-18T05:51:21;100758.63;;;8.38;100.00
64933;BME280;51446;53.850;10.662;2023-03-18T05:53:47;100764.97;;;8.46;100.00
64933;BME280;51446;53.850;10.662;2023-03-18T05:56:12;100769.19;;;8.42;100.00
64933;BME280;51446;53.850;10.662;2023-03-18T05:58:38;100766.84;;;8.52;100.00
64933;BME280;51446;53.850;10.662;2023-03-18T06:01:04;100762.38;;;8.46;100.00
64933;BME280;51446;53.850;10.662;2023-03-18T06:03:31;100759.06;;;8.53;100.00
64933;BME280;51446;53.850;10.662;2023-03-18T06:05:58;100759.84;;;8.50;100.00
64933;BME280;51446;53.850;10.662;2023-03-18T06:08:24;100768.94;;;8.66;100.00
64933;BME280;51446;53.850;10.662;2023-03-18T06:10:50;100770.72;;;8.67;100.00
64933;BME280;51446;53.850;10.662;2023-03-18T06:13:15;100764.44;;;8.61;100.00
64933;BME280;51446;53.850;10.662;2023-03-18T06:15:40;100780.31;;;8.68;100.00
64933;BME280;51446;53.850;10.662;2023-03-18T06:18:05;100774.44;;;8.77;100.00
64933;BME280;51446;53.850;10.662;2023-03-18T06:20:31;100771.56;;;8.66;100.00
64933;BME280;51446;53.850;10.662;2023-03-18T06:22:56;100770.69;;;8.66;100.00
64933;BME280;51446;53.850;10.662;2023-03-18T06:25:22;100768.13;;;8.69;100.00
64933;BME280;51446;53.850;10.662;2023-03-18T06:27:49;100773.63;;;8.81;100.00
64933;BME280;51446;53.850;10.662;2023-03-18T06:30:16;100774.44;;;8.77;100.00
64933;BME280;51446;53.850;10.662;2023-03-18T06:32:41;100784.66;;;8.68;100.00
64933;BME280;51446;53.850;10.662;2023-03-18T06:35:08;100785.72;;;8.76;100.00
64933;BME280;51446;53.850;10.662;2023-03-18T06:37:34;100790.06;;;8.76;100.00
64933;BME280;51446;53.850;10.662;2023-03-18T06:40:00;100785.09;;;8.87;100.00
64933;BME280;51446;53.850;10.662;2023-03-18T06:42:25;100786.03;;;8.90;100.00
64933;BME280;51446;53.850;10.662;2023-03-18T06:44:50;100791.22;;;8.89;100.00
64933;BME280;51446;53.850;10.662;2023-03-18T06:47:18;100784.44;;;8.97;100.00
64933;BME280;51446;53.850;10.662;2023-03-18T06:49:44;100788.81;;;8.96;100.00
64933;BME280;51446;53.850;10.662;2023-03-18T06:52:09;100797.25;;;8.84;100.00
64933;BME280;51446;53.850;10.662;2023-03-18T06:54:34;100799.97;;;8.89;100.00
64933;BME280;51446;53.850;10.662;2023-03-18T06:57:00;100805.19;;;8.88;100.00
64933;BME280;51446;53.850;10.662;2023-03-18T06:59:25;100812.16;;;8.89;100.00
64933;BME280;51446;53.850;10.662;2023-03-18T07:01:51;100814.16;;;8.99;100.00
64933;BME280;51446;53.850;10.662;2023-03-18T07:04:16;100815.72;;;8.92;100.00
64933;BME280;51446;53.850;10.662;2023-03-18T07:06:42;100825.38;;;8.95;100.00
64933;BME280;51446;53.850;10.662;2023-03-18T07:09:07;100817.47;;;8.92;100.00
64933;BME280;51446;53.850;10.662;2023-03-18T07:11:35;100822.16;;;9.07;100.00
64933;BME280;51446;53.850;10.662;2023-03-18T07:14:00;100823.06;;;9.09;100.00
64933;BME280;51446;53.850;10.662;2023-03-18T07:16:26;100818.78;;;9.11;100.00
64933;BME280;51446;53.850;10.662;2023-03-18T07:18:51;100825.91;;;9.18;100.00
64933;BME280;51446;53.850;10.662;2023-03-18T07:21:17;100824.34;;;9.26;100.00
64933;BME280;51446;53.850;10.662;2023-03-18T07:23:43;100818.50;;;9.38;100.00
64933;BME280;51446;53.850;10.662;2023-03-18T07:26:09;100824.81;;;9.48;100.00
64933;BME280;51446;53.850;10.662;2023-03-18T07:28:36;100828.34;;;9.50;100.00
64933;BME280;51446;53.850;10.662;2023-03-18T07:31:01;100818.00;;;9.58;100.00
64933;BME280;51446;53.850;10.662;2023-03-18T07:33:27;100830.94;;;9.48;100.00
64933;BME280;51446;53.850;10.662;2023-03-18T07:35:53;100839.09;;;9.64;100.00
64933;BME280;51446;53.850;10.662;2023-03-18T07:38:18;100839.00;;;9.59;100.00
64933;BME280;51446;53.850;10.662;2023-03-18T07:40:43;100830.28;;;9.60;100.00
64933;BME280;51446;53.850;10.662;2023-03-18T07:43:09;100826.75;;;9.57;100.00
64933;BME280;51446;53.850;10.662;2023-03-18T07:45:34;100832.03;;;9.60;100.00
64933;BME280;51446;53.850;10.662;2023-03-18T07:47:59;100832.16;;;9.66;100.00
64933;BME280;51446;53.850;10.662;2023-03-18T07:50:25;100832.44;;;9.80;100.00
64933;BME280;51446;53.850;10.662;2023-03-18T07:52:50;100848.16;;;9.80;100.00
64933;BME280;51446;53.850;10.662;2023-03-18T07:55:16;100848.38;;;9.92;100.00
64933;BME280;51446;53.850;10.662;2023-03-18T07:57:41;100847.91;;;10.13;100.00
64933;BME280;51446;53.850;10.662;2023-03-18T08:00:09;100837.16;;;10.45;100.00
64933;BME280;51446;53.850;10.662;2023-03-18T08:02:35;100833.41;;;11.42;100.00
64933;BME280;51446;53.850;10.662;2023-03-18T08:05:02;100827.09;;;13.00;100.00
64933;BME280;51446;53.850;10.662;2023-03-18T08:07:27;100819.75;;;14.91;100.00
64933;BME280;51446;53.850;10.662;2023-03-18T08:09:53;100823.78;;;16.07;100.00
64933;BME280;51446;53.850;10.662;2023-03-18T08:12:19;100829.44;;;16.72;100.00
64933;BME280;51446;53.850;10.662;2023-03-18T08:14:44;100837.09;;;15.87;100.00
64933;BME280;51446;53.850;10.662;2023-03-18T08:17:09;100851.44;;;14.88;100.00
64933;BME280;51446;53.850;10.662;2023-03-18T08:19:34;100846.06;;;14.03;100.00
64933;BME280;51446;53.850;10.662;2023-03-18T08:22:00;100858.78;;;13.12;100.00
64933;BME280;51446;53.850;10.662;2023-03-18T08:24:26;100857.72;;;12.89;100.00
64933;BME280;51446;53.850;10.662;2023-03-18T08:26:51;100852.50;;;12.95;100.00
64933;BME280;51446;53.850;10.662;2023-03-18T08:29:16;100857.66;;;12.78;100.00
64933;BME280;51446;53.850;10.662;2023-03-18T08:31:42;100856.75;;;12.79;100.00
64933;BME280;51446;53.850;10.662;2023-03-18T08:34:07;100845.38;;;12.78;100.00
64933;BME280;51446;53.850;10.662;2023-03-18T08:36:32;100854.13;;;12.79;100.00
64933;BME280;51446;53.850;10.662;2023-03-18T08:38:57;100861.91;;;12.62;100.00
64933;BME280;51446;53.850;10.662;2023-03-18T08:41:23;100866.41;;;12.78;100.00
64933;BME280;51446;53.850;10.662;2023-03-18T08:43:50;100866.03;;;13.44;100.00
64933;BME280;51446;53.850;10.662;2023-03-18T08:46:17;100869.63;;;13.59;100.00
64933;BME280;51446;53.850;10.662;2023-03-18T08:48:42;100870.44;;;13.47;100.00
64933;BME280;51446;53.850;10.662;2023-03-18T08:51:08;100862.69;;;13.84;100.00
64933;BME280;51446;53.850;10.662;2023-03-18T08:53:33;100875.75;;;13.64;100.00
64933;BME280;51446;53.850;10.662;2023-03-18T08:55:59;100875.84;;;13.84;100.00
64933;BME280;51446;53.850;10.662;2023-03-18T08:58:26;100874.78;;;13.39;100.00
64933;BME280;51446;53.850;10.662;2023-03-18T09:00:53;100885.22;;;13.31;100.00
64933;BME280;51446;53.850;10.662;2023-03-18T09:03:18;100887.78;;;13.18;100.00
64933;BME280;51446;53.850;10.662;2023-03-18T09:05:47;100882.41;;;13.08;100.00
64933;BME280;51446;53.850;10.662;2023-03-18T09:08:13;100894.81;;;13.21;100.00
64933;BME280;51446;53.850;10.662;2023-03-18T09:10:39;100896.53;;;13.14;100.00
64933;BME280;51446;53.850;10.662;2023-03-18T09:13:05;100893.78;;;13.04;100.00
64933;BME280;51446;53.850;10.662;2023-03-18T09:15:32;100886.72;;;12.95;100.00
64933;BME280;51446;53.850;10.662;2023-03-18T09:17:58;100891.16;;;13.02;100.00
64933;BME280;51446;53.850;10.662;2023-03-18T09:20:23;100897.97;;;12.74;100.00
64933;BME280;51446;53.850;10.662;2023-03-18T09:22:49;100900.59;;;12.74;100.00
64933;BME280;51446;53.850;10.662;2023-03-18T09:25:16;100898.84;;;12.77;100.00
64933;BME280;51446;53.850;10.662;2023-03-18T09:27:41;100904.09;;;12.73;100.00
64933;BME280;51446;53.850;10.662;2023-03-18T09:30:08;100909.38;;;12.77;100.00
64933;BME280;51446;53.850;10.662;2023-03-18T09:32:34;100918.06;;;12.65;100.00
64933;BME280;51446;53.850;10.662;2023-03-18T09:34:59;100918.91;;;12.64;100.00
64933;BME280;51446;53.850;10.662;2023-03-18T09:37:24;100919.81;;;12.66;100.00
64933;BME280;51446;53.850;10.662;2023-03-18T09:39:50;100926.09;;;12.82;100.00
64933;BME280;51446;53.850;10.662;2023-03-18T09:44:54;100924.25;;;12.71;100.00
64933;BME280;51446;53.850;10.662;2023-03-18T09:53:20;100945.88;;;12.42;100.00
64933;BME280;51446;53.850;10.662;2023-03-18T09:55:49;100938.88;;;12.44;100.00
64933;BME280;51446;53.850;10.662;2023-03-18T10:00:59;100935.38;;;12.45;100.00
64933;BME280;51446;53.850;10.662;2023-03-18T10:03:36;100943.91;;;12.25;100.00
64933;BME280;51446;53.850;10.662;2023-03-18T10:06:14;100942.06;;;12.17;100.00
64933;BME280;51446;53.850;10.662;2023-03-18T10:08:44;100946.34;;;12.08;100.00
64933;BME280;51446;53.850;10.662;2023-03-18T10:11:23;100950.56;;;11.95;100.00
64933;BME280;51446;53.850;10.662;2023-03-18T10:14:06;100947.00;;;11.92;100.00
64933;BME280;51446;53.850;10.662;2023-03-18T10:16:52;100944.31;;;11.87;100.00
64933;BME280;51446;53.850;10.662;2023-03-18T10:19:19;100952.19;;;11.87;100.00
64933;BME280;51446;53.850;10.662;2023-03-18T10:22:00;100954.94;;;11.95;100.00
64933;BME280;51446;53.850;10.662;2023-03-18T10:25:00;100956.50;;;11.84;100.00
64933;BME280;51446;53.850;10.662;2023-03-18T10:30:35;100956.81;;;12.05;100.00
64933;BME280;51446;53.850;10.662;2023-03-18T10:35:47;100968.41;;;12.20;100.00
64933;BME280;51446;53.850;10.662;2023-03-18T10:38:20;100964.97;;;12.27;100.00
64933;BME280;51446;53.850;10.662;2023-03-18T10:40:47;100957.00;;;12.19;100.00
64933;BME280;51446;53.850;10.662;2023-03-18T10:43:21;100977.38;;;12.39;100.00
64933;BME280;51446;53.850;10.662;2023-03-18T10:45:57;100974.69;;;12.32;100.00
64933;BME280;51446;53.850;10.662;2023-03-18T10:48:42;100973.25;;;12.59;100.00
64933;BME280;51446;53.850;10.662;2023-03-18T10:54:23;100969.13;;;12.89;100.00
64933;BME280;51446;53.850;10.662;2023-03-18T10:56:51;100969.25;;;13.01;100.00
64933;BME280;51446;53.850;10.662;2023-03-18T10:59:20;100977.91;;;12.85;100.00
64933;BME280;51446;53.850;10.662;2023-03-18T11:01:48;100968.47;;;13.13;100.00
64933;BME280;51446;53.850;10.662;2023-03-18T11:04:18;100970.38;;;13.30;100.00
64933;BME280;51446;53.850;10.662;2023-03-18T11:06:50;100975.06;;;13.69;100.00
64933;BME280;51446;53.850;10.662;2023-03-18T11:09:29;100977.22;;;14.58;100.00
64933;BME280;51446;53.850;10.662;2023-03-18T11:11:57;100963.78;;;13.98;100.00
64933;BME280;51446;53.850;10.662;2023-03-18T11:14:29;100963.03;;;14.19;100.00
64933;BME280;51446;53.850;10.662;2023-03-18T11:17:03;100958.81;;;15.30;100.00
64933;BME280;51446;53.850;10.662;2023-03-18T11:20:05;100956.44;;;17.87;100.00
64933;BME280;51446;53.850;10.662;2023-03-18T11:22:33;100947.97;;;18.32;98.28
64933;BME280;51446;53.850;10.662;2023-03-18T11:25:20;100962.59;;;17.95;97.32
64933;BME280;51446;53.850;10.662;2023-03-18T11:27:55;100958.13;;;17.97;98.15
64933;BME280;51446;53.850;10.662;2023-03-18T11:30:28;100966.19;;;16.90;100.00
64933;BME280;51446;53.850;10.662;2023-03-18T11:33:02;100977.31;;;15.54;100.00
64933;BME280;51446;53.850;10.662;2023-03-18T11:35:59;100980.84;;;15.30;100.00
64933;BME280;51446;53.850;10.662;2023-03-18T11:38:30;100972.03;;;14.93;100.00
64933;BME280;51446;53.850;10.662;2023-03-18T11:41:17;100982.47;;;14.51;100.00
64933;BME280;51446;53.850;10.662;2023-03-18T11:46:20;100977.94;;;14.16;100.00
64933;BME280;51446;53.850;10.662;2023-03-18T11:48:47;100980.63;;;14.20;100.00
64933;BME280;51446;53.850;10.662;2023-03-18T11:51:37;100986.00;;;14.56;100.00
64933;BME280;51446;53.850;10.662;2023-03-18T12:05:15;100992.19;;;16.08;100.00
64933;BME280;51446;53.850;10.662;2023-03-18T12:10:36;100996.16;;;18.68;94.59
64933;BME280;51446;53.850;10.662;2023-03-18T12:13:21;100988.00;;;19.38;88.95
64933;BME280;51446;53.850;10.662;2023-03-18T12:19:24;100988.78;;;19.95;78.92
64933;BME280;51446;53.850;10.662;2023-03-18T12:27:19;100995.41;;;19.20;83.42
64933;BME280;51446;53.850;10.662;2023-03-18T12:30:04;101006.06;;;17.79;91.11
64933;BME280;51446;53.850;10.662;2023-03-18T12:35:55;101003.69;;;17.49;96.65
64933;BME280;51446;53.850;10.662;2023-03-18T12:38:41;101014.16;;;16.28;100.00
64933;BME280;51446;53.850;10.662;2023-03-18T12:44:05;101016.09;;;15.41;100.00
64933;BME280;51446;53.850;10.662;2023-03-18T12:46:47;101016.81;;;16.24;100.00
64933;BME280;51446;53.850;10.662;2023-03-18T12:49:18;101019.06;;;17.06;100.00
64933;BME280;51446;53.850;10.662;2023-03-18T12:51:49;101007.72;;;16.80;100.00
64933;BME280;51446;53.850;10.662;2023-03-18T12:54:25;101012.78;;;17.21;100.00
64933;BME280;51446;53.850;10.662;2023-03-18T12:57:05;101011.06;;;17.13;100.00
64933;BME280;51446;53.850;10.662;2023-03-18T12:59:40;101013.06;;;16.74;100.00
64933;BME280;51446;53.850;10.662;2023-03-18T13:05:03;101016.81;;;16.24;100.00
64933;BME280;51446;53.850;10.662;2023-03-18T13:07:39;101007.22;;;15.84;100.00
64933;BME280;51446;53.850;10.662;2023-03-18T13:12:41;101008.97;;;15.73;100.00
64933;BME280;51446;53.850;10.662;2023-03-18T13:15:21;101015.94;;;16.22;100.00
64933;BME280;51446;53.850;10.662;2023-03-18T13:17:52;101012.66;;;17.34;100.00
64933;BME280;51446;53.850;10.662;2023-03-18T13:20:28;101008.56;;;16.92;97.46
64933;BME280;51446;53.850;10.662;2023-03-18T13:22:58;101019.94;;;17.08;97.70
64933;BME280;51446;53.850;10.662;2023-03-18T13:31:37;101011.91;;;17.15;93.45
64933;BME280;51446;53.850;10.662;2023-03-18T13:34:30;101014.44;;;17.32;94.63
64933;BME280;51446;53.850;10.662;2023-03-18T13:37:13;101010.00;;;17.36;91.08
64933;BME280;51446;53.850;10.662;2023-03-18T13:42:40;101022.66;;;16.95;93.48
64933;BME280;51446;53.850;10.662;2023-03-18T13:45:19;101012.06;;;16.94;90.40
64933;BME280;51446;53.850;10.662;2023-03-18T13:47:55;101014.75;;;16.91;91.36
64933;BME280;51446;53.850;10.662;2023-03-18T13:50:34;101017.59;;;16.54;94.25
64933;BME280;51446;53.850;10.662;2023-03-18T13:53:03;101014.63;;;17.08;93.66
64933;BME280;51446;53.850;10.662;2023-03-18T13:58:16;101014.03;;;17.76;88.55